Terminal Aerodrome Forecast
Issued by NWS Albany, NY

Home | Current Version | Previous Version | Text Only | Print | Product List | Glossary On
Versions: 1 2 3 4 5 6 7 8 9 10 11 12 13 14 15 16 17 18 19 20 21 22
000
FTUS41 KALY 061916 AAA
TAFGFL
TAF AMD
KGFL 061916Z 0619/0718 16008G14KT P6SM SKC
     FM062200 22004KT P6SM BKN200
     FM070900 22003KT P6SM BKN120
     FM071200 22006KT P6SM BKN045 BKN100=

USA.gov is the U.S. government's official web portal to all federal, state and local government web resources and services.